Terminal Aerodrome Forecast
Issued by NWS

Home | Current Version | Previous Version | Text Only | Print | Product List | Glossary On
Versions: 1 2 3 4 5 6 7 8 9 10 11 12 13 14
000
FTUS46 KSEW 301100
TAFOLM
TAF
KOLM 301120Z 3012/3112 VRB03KT P6SM -RA BKN050 OVC090
     FM301700 12005KT P6SM -RA OVC050
     FM310000 18006KT P6SM -RA SCT015 OVC030
     FM310600 18006KT P6SM OVC015=

USA.gov is the U.S. government's official web portal to all federal, state and local government web resources and services.